createdAt,value
2018-02-20T00:01:08.101Z,99.90
2018-02-20T00:03:35.684Z,99.90
2018-02-20T00:06:03.227Z,99.90
2018-02-20T00:08:30.812Z,99.90
2018-02-20T00:10:58.359Z,99.90
2018-02-20T00:13:26.049Z,99.90
2018-02-20T00:15:53.649Z,99.90
2018-02-20T00:18:21.196Z,99.90
2018-02-20T00:20:48.736Z,99.90
2018-02-20T00:23:16.302Z,99.90
2018-02-20T00:25:43.881Z,99.90
2018-02-20T00:28:11.460Z,99.90
2018-02-20T00:30:39.853Z,99.90
2018-02-20T00:33:07.428Z,99.90
2018-02-20T00:35:34.960Z,99.90
2018-02-20T00:38:03.334Z,99.90
2018-02-20T00:40:30.880Z,99.90
2018-02-20T00:42:58.457Z,99.90
2018-02-20T00:45:26.816Z,99.90
2018-02-20T00:47:55.161Z,99.90
2018-02-20T00:50:22.746Z,99.90
2018-02-20T00:52:50.299Z,99.90
2018-02-20T00:55:17.877Z,99.90
2018-02-20T00:57:45.428Z,99.90
2018-02-20T01:00:13.037Z,99.90
2018-02-20T01:02:40.617Z,99.90
2018-02-20T01:05:08.320Z,99.90
2018-02-20T01:07:35.899Z,99.90
2018-02-20T01:10:03.438Z,99.90
2018-02-20T01:12:31.752Z,99.90
2018-02-20T01:15:00.134Z,99.90
2018-02-20T01:17:27.679Z,99.90
2018-02-20T01:19:55.380Z,99.90
2018-02-20T01:22:22.977Z,99.90
2018-02-20T01:24:50.529Z,99.90
2018-02-20T01:27:18.105Z,99.90
2018-02-20T01:29:45.732Z,99.90
2018-02-20T01:32:13.321Z,99.90
2018-02-20T01:34:41.635Z,99.90
2018-02-20T01:37:09.208Z,99.90
2018-02-20T01:39:36.748Z,99.90
2018-02-20T01:42:04.269Z,99.90
2018-02-20T01:44:31.835Z,99.90
2018-02-20T01:46:59.384Z,99.90
2018-02-20T01:49:26.961Z,99.90
2018-02-20T01:51:54.548Z,99.90
2018-02-20T01:54:22.125Z,99.90
2018-02-20T01:56:49.668Z,99.90
2018-02-20T01:59:17.240Z,99.90
2018-02-20T02:01:44.817Z,99.90
2018-02-20T02:04:12.364Z,99.90
2018-02-20T02:06:40.835Z,99.90
2018-02-20T02:09:09.148Z,99.90
2018-02-20T02:11:37.493Z,99.90
2018-02-20T02:14:05.835Z,99.90
2018-02-20T02:16:33.380Z,99.90
2018-02-20T02:19:00.961Z,99.90
2018-02-20T02:21:28.553Z,99.90
2018-02-20T02:23:56.099Z,99.90
2018-02-20T02:26:23.640Z,99.90
2018-02-20T02:28:51.205Z,99.90
2018-02-20T02:31:18.744Z,99.90
2018-02-20T02:33:46.225Z,99.90
2018-02-20T02:36:14.556Z,99.90
2018-02-20T02:38:42.135Z,99.90
2018-02-20T02:41:09.718Z,99.90
2018-02-20T02:43:37.346Z,99.90
2018-02-20T02:46:04.890Z,99.90
2018-02-20T02:48:32.436Z,99.90
2018-02-20T02:51:00.025Z,99.90
2018-02-20T02:53:27.565Z,99.90
2018-02-20T02:55:55.142Z,99.90
2018-02-20T02:58:22.687Z,99.90
2018-02-20T03:00:50.229Z,99.90
2018-02-20T03:03:17.780Z,99.90
2018-02-20T03:05:45.360Z,99.90
2018-02-20T03:08:13.724Z,99.90
2018-02-20T03:10:41.288Z,99.90
2018-02-20T03:13:08.860Z,99.90
2018-02-20T03:15:37.192Z,99.90
2018-02-20T03:18:04.768Z,99.90
2018-02-20T03:20:32.354Z,99.90
2018-02-20T03:22:59.892Z,99.90
2018-02-20T03:25:27.377Z,99.90
2018-02-20T03:27:54.992Z,99.90
2018-02-20T03:30:22.579Z,99.90
2018-02-20T03:32:50.891Z,99.90
2018-02-20T03:35:18.455Z,99.90
2018-02-20T03:37:46.028Z,99.90
2018-02-20T03:40:14.340Z,99.90
2018-02-20T03:42:41.966Z,99.90
2018-02-20T03:45:09.540Z,99.90
2018-02-20T03:47:37.088Z,99.90
2018-02-20T03:50:04.705Z,99.90
2018-02-20T03:52:32.243Z,99.90
2018-02-20T03:54:59.822Z,99.90
2018-02-20T03:57:27.912Z,99.90
2018-02-20T03:59:56.223Z,99.90
2018-02-20T04:02:23.766Z,99.90
2018-02-20T04:04:52.092Z,99.90
2018-02-20T04:07:19.643Z,99.90
2018-02-20T04:09:47.188Z,99.90
2018-02-20T04:12:14.801Z,99.90
2018-02-20T04:14:43.111Z,99.90
2018-02-20T04:17:10.660Z,99.90
2018-02-20T04:19:38.272Z,99.90
2018-02-20T04:22:06.141Z,99.90
2018-02-20T04:24:33.708Z,99.90
2018-02-20T04:27:02.502Z,99.90
2018-02-20T04:29:30.085Z,99.90
2018-02-20T04:31:57.653Z,99.90
2018-02-20T04:34:25.320Z,99.90
2018-02-20T04:36:52.897Z,99.90
2018-02-20T04:39:20.477Z,99.90
2018-02-20T04:41:48.206Z,99.90
2018-02-20T04:44:16.776Z,99.90
2018-02-20T04:46:45.116Z,99.90
2018-02-20T04:49:12.709Z,99.90
2018-02-20T04:51:40.248Z,99.90
2018-02-20T04:54:07.836Z,99.90
2018-02-20T04:56:35.717Z,99.90
2018-02-20T04:59:04.025Z,99.90
2018-02-20T05:01:31.568Z,99.90
2018-02-20T05:03:59.172Z,99.90
2018-02-20T05:06:26.720Z,99.90
2018-02-20T05:08:54.333Z,99.90
2018-02-20T05:11:21.942Z,99.90
2018-02-20T05:13:49.517Z,99.90
2018-02-20T05:16:17.056Z,99.90
2018-02-20T05:18:44.656Z,99.90
2018-02-20T05:21:12.203Z,99.90
2018-02-20T05:23:39.780Z,99.90
2018-02-20T05:26:07.443Z,99.90
2018-02-20T05:28:35.017Z,99.90
2018-02-20T05:31:04.359Z,99.90
2018-02-20T05:33:31.946Z,99.90
2018-02-20T05:35:59.524Z,99.90
2018-02-20T05:38:27.079Z,99.90
2018-02-20T05:40:54.641Z,99.90
2018-02-20T05:43:22.164Z,99.90
2018-02-20T05:45:50.476Z,99.90
2018-02-20T05:48:18.086Z,99.90
2018-02-20T05:50:45.677Z,99.90
2018-02-20T05:53:13.227Z,99.90
2018-02-20T05:55:40.836Z,99.90
2018-02-20T05:58:08.413Z,99.90
2018-02-20T06:00:35.999Z,99.90
2018-02-20T06:03:03.613Z,99.90
2018-02-20T06:05:31.156Z,99.90
2018-02-20T06:07:58.741Z,99.90
2018-02-20T06:10:26.323Z,99.90
2018-02-20T06:12:53.810Z,99.90
2018-02-20T06:15:21.359Z,99.90
2018-02-20T06:17:48.917Z,99.90
2018-02-20T06:20:16.470Z,99.90
2018-02-20T06:22:44.045Z,99.90
2018-02-20T06:25:13.429Z,99.90
2018-02-20T06:27:41.752Z,99.90
2018-02-20T06:30:09.296Z,99.90
2018-02-20T06:32:36.897Z,99.90
2018-02-20T06:35:04.432Z,99.90
2018-02-20T06:37:31.980Z,99.90
2018-02-20T06:39:59.600Z,99.90
2018-02-20T06:42:27.904Z,99.90
2018-02-20T06:44:55.488Z,99.90
2018-02-20T06:47:23.093Z,99.90
2018-02-20T06:49:50.631Z,99.90
2018-02-20T06:52:18.217Z,99.90
2018-02-20T06:54:45.833Z,99.90
2018-02-20T06:57:13.414Z,99.90
2018-02-20T06:59:40.964Z,99.90
2018-02-20T07:02:09.349Z,99.90
2018-02-20T07:04:37.735Z,99.90
2018-02-20T07:07:05.316Z,99.90
2018-02-20T07:09:32.913Z,99.90
2018-02-20T07:12:00.458Z,99.90
2018-02-20T07:14:27.996Z,99.90
2018-02-20T07:16:57.119Z,99.90
2018-02-20T07:19:24.704Z,99.90
2018-02-20T07:21:53.056Z,99.90
2018-02-20T07:24:21.716Z,99.90
2018-02-20T07:26:51.674Z,99.90
2018-02-20T07:29:19.264Z,99.90
2018-02-20T07:31:46.827Z,99.80
2018-02-20T07:34:15.135Z,95.40
2018-02-20T07:36:42.684Z,95.40
2018-02-20T07:39:10.308Z,93.00
2018-02-20T07:41:38.060Z,92.60
2018-02-20T07:44:05.538Z,93.10
2018-02-20T07:46:33.101Z,93.70
2018-02-20T07:49:01.408Z,92.20
2018-02-20T07:51:28.989Z,92.20
2018-02-20T07:53:56.591Z,93.70
2018-02-20T07:56:24.131Z,92.60
2018-02-20T07:58:51.706Z,92.30
2018-02-20T08:01:19.321Z,92.20
2018-02-20T08:03:46.868Z,94.20
2018-02-20T08:06:14.413Z,92.80
2018-02-20T08:08:41.989Z,92.50
2018-02-20T08:11:09.564Z,93.00
2018-02-20T08:13:37.809Z,92.30
2018-02-20T08:16:05.409Z,92.30
2018-02-20T08:18:32.947Z,92.80
2018-02-20T08:21:00.541Z,91.50
2018-02-20T08:23:28.086Z,91.80
2018-02-20T08:25:55.560Z,91.70
2018-02-20T08:28:23.902Z,91.20
2018-02-20T08:30:52.237Z,91.60
2018-02-20T08:33:19.819Z,91.60
2018-02-20T08:35:47.372Z,91.40
2018-02-20T08:38:14.951Z,92.50
2018-02-20T08:40:42.533Z,91.10
2018-02-20T08:43:10.072Z,91.60
2018-02-20T08:45:37.683Z,92.90
2018-02-20T08:48:05.291Z,91.80
2018-02-20T08:50:33.597Z,90.40
2018-02-20T08:53:01.201Z,90.40
2018-02-20T08:55:28.781Z,91.60
2018-02-20T08:57:56.359Z,87.20
2018-02-20T09:00:23.981Z,88.40
2018-02-20T09:02:51.561Z,89.90
2018-02-20T09:05:19.914Z,89.20
2018-02-20T09:07:48.450Z,89.50
2018-02-20T09:10:16.016Z,89.10
2018-02-20T09:12:43.535Z,89.60
2018-02-20T09:15:11.103Z,90.00
2018-02-20T09:17:38.647Z,88.90
2018-02-20T09:20:06.179Z,87.10
2018-02-20T09:22:33.731Z,86.40
2018-02-20T09:25:01.276Z,87.20
2018-02-20T09:27:28.858Z,88.40
2018-02-20T09:29:56.465Z,84.10
2018-02-20T09:32:23.999Z,89.10
2018-02-20T09:34:51.576Z,85.80
2018-02-20T09:37:20.570Z,85.10
2018-02-20T09:39:48.113Z,85.20
2018-02-20T09:42:15.639Z,83.50
2018-02-20T09:44:44.008Z,84.10
2018-02-20T09:47:12.311Z,85.30
2018-02-20T09:49:39.881Z,85.30
2018-02-20T09:52:08.330Z,83.00
2018-02-20T09:54:35.908Z,85.70
2018-02-20T09:57:04.249Z,82.10
2018-02-20T09:59:31.865Z,82.20
2018-02-20T10:01:59.408Z,83.90
2018-02-20T10:04:26.961Z,81.90
2018-02-20T10:06:54.555Z,80.10
2018-02-20T10:09:22.903Z,84.40
2018-02-20T10:11:50.489Z,84.50
2018-02-20T10:14:18.288Z,81.60
2018-02-20T10:16:47.092Z,84.10
2018-02-20T10:19:15.453Z,83.70
2018-02-20T10:21:43.791Z,82.50
2018-02-20T10:24:11.372Z,82.10
2018-02-20T10:26:38.919Z,85.10
2018-02-20T10:29:06.525Z,81.40
2018-02-20T10:31:34.327Z,81.70
2018-02-20T10:34:01.854Z,87.00
2018-02-20T10:36:29.459Z,87.40
2018-02-20T10:38:57.045Z,84.00
2018-02-20T10:41:24.624Z,84.20
2018-02-20T10:43:52.228Z,82.20
2018-02-20T10:46:19.812Z,83.60
2018-02-20T10:48:47.392Z,86.10
2018-02-20T10:51:15.756Z,85.80
2018-02-20T10:53:44.104Z,85.50
2018-02-20T10:56:11.694Z,85.50
2018-02-20T10:58:39.305Z,86.00
2018-02-20T11:01:06.927Z,84.40
2018-02-20T11:03:34.483Z,84.20
2018-02-20T11:06:02.063Z,84.70
2018-02-20T11:08:29.647Z,84.50
2018-02-20T11:10:57.223Z,88.40
2018-02-20T11:13:24.788Z,82.70
2018-02-20T11:15:53.142Z,85.60
2018-02-20T11:18:20.721Z,85.50
2018-02-20T11:20:48.332Z,83.50
2018-02-20T11:23:15.916Z,86.40
2018-02-20T11:25:43.489Z,84.80
2018-02-20T11:28:11.827Z,83.80
2018-02-20T11:30:39.372Z,84.00
2018-02-20T11:33:06.932Z,87.80
2018-02-20T11:35:34.846Z,84.90
2018-02-20T11:38:03.177Z,84.20
2018-02-20T11:40:30.757Z,84.20
2018-02-20T11:42:58.369Z,83.70
2018-02-20T11:45:25.904Z,79.30
2018-02-20T11:47:53.496Z,82.60
2018-02-20T11:50:21.124Z,80.90
2018-02-20T11:52:48.676Z,82.50
2018-02-20T11:55:16.252Z,83.00
2018-02-20T11:57:43.860Z,80.80
2018-02-20T12:00:12.168Z,84.80
2018-02-20T12:02:39.745Z,84.80
2018-02-20T12:05:07.325Z,82.30
2018-02-20T12:07:34.867Z,82.70
2018-02-20T12:10:02.445Z,83.30
2018-02-20T12:12:30.086Z,83.50
2018-02-20T12:14:57.623Z,81.40
2018-02-20T12:17:25.233Z,84.20
2018-02-20T12:19:52.868Z,86.90
2018-02-20T12:22:21.175Z,82.30
2018-02-20T12:24:48.712Z,82.20
2018-02-20T12:27:16.320Z,81.70
2018-02-20T12:29:43.880Z,82.50
2018-02-20T12:32:11.463Z,83.80
2018-02-20T12:34:39.196Z,84.80
2018-02-20T12:37:06.776Z,85.00
2018-02-20T12:39:34.315Z,85.20
2018-02-20T12:42:01.874Z,80.90
2018-02-20T12:44:29.421Z,83.20
2018-02-20T12:46:57.743Z,82.00
2018-02-20T12:49:25.361Z,81.10
2018-02-20T12:51:52.902Z,81.50
2018-02-20T12:54:20.481Z,82.10
2018-02-20T12:56:48.066Z,81.70
2018-02-20T12:59:15.701Z,77.30
2018-02-20T13:01:43.240Z,81.00
2018-02-20T13:04:11.116Z,83.30
2018-02-20T13:06:38.667Z,83.00
2018-02-20T13:09:06.232Z,83.10
2018-02-20T13:11:33.861Z,78.40
2018-02-20T13:14:01.463Z,77.20
2018-02-20T13:16:29.011Z,80.00
2018-02-20T13:18:57.778Z,81.30
2018-02-20T13:21:25.340Z,79.40
2018-02-20T13:23:53.644Z,82.10
2018-02-20T13:26:21.237Z,82.20
2018-02-20T13:28:48.816Z,79.70
2018-02-20T13:31:16.401Z,77.60
2018-02-20T13:33:44.110Z,77.10
2018-02-20T13:36:11.963Z,79.10
2018-02-20T13:38:39.539Z,74.20
2018-02-20T13:41:07.142Z,78.60
2018-02-20T13:43:34.680Z,78.30
2018-02-20T13:46:02.232Z,80.30
2018-02-20T13:48:29.841Z,78.60
2018-02-20T13:50:57.424Z,81.70
2018-02-20T13:53:25.018Z,81.80
2018-02-20T13:55:52.622Z,82.70
2018-02-20T13:58:20.221Z,85.90
2018-02-20T14:00:47.763Z,90.10
2018-02-20T14:03:15.323Z,85.80
2018-02-20T14:05:43.669Z,85.80
2018-02-20T14:08:11.249Z,86.00
2018-02-20T14:10:38.825Z,86.90
2018-02-20T14:13:06.476Z,86.00
2018-02-20T14:15:33.962Z,87.30
2018-02-20T14:18:01.552Z,88.80
2018-02-20T14:20:29.111Z,86.70
2018-02-20T14:22:56.638Z,86.60
2018-02-20T14:25:24.253Z,87.70
2018-02-20T14:27:52.564Z,90.30
2018-02-20T14:30:20.112Z,90.30
2018-02-20T14:32:47.737Z,91.10
2018-02-20T14:35:15.318Z,89.00
2018-02-20T14:37:43.012Z,90.60
2018-02-20T14:40:10.554Z,90.60
2018-02-20T14:42:38.129Z,91.30
2018-02-20T14:45:05.704Z,90.40
2018-02-20T14:47:33.305Z,90.80
2018-02-20T14:50:00.839Z,89.60
2018-02-20T14:52:28.409Z,89.80
2018-02-20T14:54:56.050Z,89.40
2018-02-20T14:57:23.596Z,90.00
2018-02-20T14:59:51.163Z,87.80
2018-02-20T15:02:18.743Z,89.40
2018-02-20T15:04:46.333Z,87.10
2018-02-20T15:07:13.951Z,85.10
2018-02-20T15:09:41.527Z,88.40
2018-02-20T15:12:09.082Z,88.30
2018-02-20T15:14:36.702Z,89.70
2018-02-20T15:17:05.088Z,88.10
2018-02-20T15:19:32.632Z,87.10
2018-02-20T15:22:00.184Z,88.50
2018-02-20T15:24:27.756Z,90.00
2018-02-20T15:26:55.343Z,87.20
2018-02-20T15:29:23.781Z,90.10
2018-02-20T15:31:51.360Z,90.70
2018-02-20T15:34:18.972Z,90.70
2018-02-20T15:36:46.454Z,90.70
2018-02-20T15:39:16.136Z,90.90
2018-02-20T15:41:43.655Z,90.60
2018-02-20T15:44:11.233Z,90.60
2018-02-20T15:46:38.828Z,90.90
2018-02-20T15:49:06.348Z,90.10
2018-02-20T15:51:33.884Z,92.10
2018-02-20T15:54:01.456Z,90.60
2018-02-20T15:56:29.036Z,91.90
2018-02-20T15:58:56.620Z,92.80
2018-02-20T16:01:24.230Z,91.10
2018-02-20T16:03:51.788Z,89.00
2018-02-20T16:06:19.384Z,89.90
2018-02-20T16:08:47.184Z,89.20
2018-02-20T16:11:14.735Z,88.10
2018-02-20T16:13:42.288Z,90.30
2018-02-20T16:16:20.609Z,89.80
2018-02-20T16:18:48.198Z,90.90
2018-02-20T16:21:15.773Z,91.20
2018-02-20T16:23:45.554Z,89.80
2018-02-20T16:26:13.110Z,91.20
2018-02-20T16:28:40.593Z,90.00
2018-02-20T16:31:08.196Z,90.20
2018-02-20T16:33:35.732Z,88.80
2018-02-20T16:36:03.255Z,90.10
2018-02-20T16:38:30.837Z,90.30
2018-02-20T16:40:59.180Z,90.40
2018-02-20T16:43:26.762Z,90.40
2018-02-20T16:45:54.349Z,90.80
2018-02-20T16:48:22.621Z,90.90
2018-02-20T16:50:50.153Z,91.20
2018-02-20T16:53:17.722Z,91.00
2018-02-20T16:55:45.329Z,91.60
2018-02-20T16:58:12.904Z,93.30
2018-02-20T17:00:40.468Z,91.50
2018-02-20T17:03:08.781Z,92.70
2018-02-20T17:05:37.132Z,92.50
2018-02-20T17:08:04.750Z,92.60
2018-02-20T17:10:33.089Z,93.00
2018-02-20T17:13:00.673Z,92.90
2018-02-20T17:15:28.304Z,94.70
2018-02-20T17:17:55.881Z,93.20
2018-02-20T17:20:23.465Z,91.70
2018-02-20T17:22:51.051Z,93.40
2018-02-20T17:25:18.629Z,94.30
2018-02-20T17:27:46.208Z,93.30
2018-02-20T17:30:14.075Z,92.70
2018-02-20T17:32:41.720Z,93.20
2018-02-20T17:35:09.285Z,94.30
2018-02-20T17:37:37.180Z,93.70
2018-02-20T17:40:04.781Z,93.90
2018-02-20T17:42:32.358Z,95.10
2018-02-20T17:44:59.936Z,93.80
2018-02-20T17:47:28.282Z,94.90
2018-02-20T17:49:55.758Z,94.90
2018-02-20T17:52:24.168Z,94.40
2018-02-20T17:54:51.740Z,94.40
2018-02-20T17:57:19.292Z,92.00
2018-02-20T17:59:47.647Z,93.50
2018-02-20T18:02:15.188Z,93.50
2018-02-20T18:04:42.732Z,93.90
2018-02-20T18:07:10.316Z,93.20
2018-02-20T18:09:37.855Z,92.60
2018-02-20T18:12:05.388Z,91.80
2018-02-20T18:14:32.911Z,92.60
2018-02-20T18:17:00.381Z,90.90
2018-02-20T18:19:28.692Z,90.40
2018-02-20T18:21:56.352Z,90.40
2018-02-20T18:24:24.721Z,88.70
2018-02-20T18:26:53.047Z,87.80
2018-02-20T18:29:20.623Z,87.80
2018-02-20T18:31:48.172Z,88.40
2018-02-20T18:34:16.487Z,90.40
2018-02-20T18:36:44.079Z,90.00
2018-02-20T18:39:11.680Z,91.40
2018-02-20T18:41:40.017Z,88.90
2018-02-20T18:44:07.589Z,88.90
2018-02-20T18:46:35.144Z,87.50
2018-02-20T18:49:02.740Z,87.00
2018-02-20T18:51:31.255Z,86.70
2018-02-20T18:53:59.559Z,87.30
2018-02-20T18:56:27.113Z,87.30
2018-02-20T18:58:54.693Z,90.70
2018-02-20T19:01:22.274Z,91.30
2018-02-20T19:03:49.880Z,87.40
2018-02-20T19:06:18.230Z,91.20
2018-02-20T19:08:45.818Z,91.30
2018-02-20T19:11:14.169Z,90.80
2018-02-20T19:13:41.712Z,90.80
2018-02-20T19:16:09.289Z,88.90
2018-02-20T19:18:36.905Z,86.80
2018-02-20T19:21:05.282Z,89.00
2018-02-20T19:23:34.272Z,88.40
2018-02-20T19:26:02.612Z,89.90
2018-02-20T19:28:30.197Z,89.80
2018-02-20T19:30:57.779Z,88.90
2018-02-20T19:33:25.373Z,90.00
2018-02-20T19:35:52.911Z,86.80
2018-02-20T19:38:21.232Z,88.00
2018-02-20T19:40:48.853Z,87.70
2018-02-20T19:43:16.393Z,86.90
2018-02-20T19:45:57.049Z,86.80
2018-02-20T19:48:25.389Z,87.60
2018-02-20T19:50:52.911Z,87.50
2018-02-20T19:53:20.488Z,88.50
2018-02-20T19:55:48.068Z,88.40
2018-02-20T19:58:15.698Z,87.70
2018-02-20T20:06:41.614Z,87.70
2018-02-20T20:09:09.953Z,87.00
2018-02-20T20:11:37.459Z,86.90
2018-02-20T20:14:05.795Z,89.20
2018-02-20T20:16:33.340Z,89.10
2018-02-20T20:19:00.919Z,89.80
2018-02-20T20:21:28.611Z,89.80
2018-02-20T20:23:56.154Z,87.90
2018-02-20T20:26:23.735Z,86.80
2018-02-20T20:28:51.516Z,88.10
2018-02-20T20:31:19.866Z,86.50
2018-02-20T20:33:47.446Z,86.50
2018-02-20T20:36:15.071Z,84.70
2018-02-20T20:38:42.618Z,83.50
2018-02-20T20:41:10.158Z,87.00
2018-02-20T20:43:38.545Z,83.60
2018-02-20T20:46:06.085Z,83.50
2018-02-20T20:48:33.711Z,82.80
2018-02-20T20:56:52.797Z,88.00
2018-02-20T21:00:59.777Z,84.10
2018-02-20T21:03:27.353Z,85.50
2018-02-20T21:05:54.922Z,85.60
2018-02-20T21:08:22.538Z,84.60
2018-02-20T21:10:50.146Z,86.90
2018-02-20T21:13:17.680Z,87.20
2018-02-20T21:15:46.000Z,88.70
2018-02-20T21:18:13.569Z,88.60
2018-02-20T21:20:41.142Z,88.20
2018-02-20T21:23:08.762Z,87.60
2018-02-20T21:25:37.073Z,89.60
2018-02-20T21:28:04.613Z,89.90
2018-02-20T21:30:32.227Z,89.50
2018-02-20T21:32:59.802Z,89.00
2018-02-20T21:35:27.341Z,90.00
2018-02-20T21:37:54.925Z,90.20
2018-02-20T21:40:22.464Z,89.00
2018-02-20T21:42:50.020Z,90.80
2018-02-20T21:45:17.742Z,92.90
2018-02-20T21:47:45.366Z,91.30
2018-02-20T21:50:12.942Z,91.40
2018-02-20T21:52:40.495Z,91.90
2018-02-20T21:55:08.066Z,92.00
2018-02-20T21:57:35.712Z,91.00
2018-02-20T22:00:03.335Z,91.60
2018-02-20T22:02:31.640Z,92.30
2018-02-20T22:04:59.241Z,92.30
2018-02-20T22:07:26.882Z,93.80
2018-02-20T22:09:54.436Z,94.40
2018-02-20T22:12:21.953Z,93.80
2018-02-20T22:14:49.572Z,94.30
2018-02-20T22:17:17.176Z,95.20
2018-02-20T22:19:44.698Z,95.60
2018-02-20T22:22:12.297Z,95.10
2018-02-20T22:24:39.840Z,95.70
2018-02-20T22:27:07.379Z,97.00
2018-02-20T22:29:34.964Z,95.40
2018-02-20T22:32:02.500Z,95.50
2018-02-20T22:34:30.119Z,96.30
2018-02-20T22:36:57.733Z,95.90
2018-02-20T22:39:25.318Z,96.30
2018-02-20T22:41:53.657Z,96.40
2018-02-20T22:44:21.134Z,96.40
2018-02-20T22:46:48.705Z,97.60
2018-02-20T22:49:16.322Z,96.90
2018-02-20T22:51:43.838Z,97.90
2018-02-20T22:54:11.408Z,97.30
2018-02-20T22:56:38.990Z,96.60
2018-02-20T22:59:07.404Z,97.40
2018-02-20T23:01:35.062Z,97.40
2018-02-20T23:04:02.673Z,97.90
2018-02-20T23:06:30.250Z,97.90
2018-02-20T23:08:57.829Z,98.30
2018-02-20T23:11:37.273Z,97.80
2018-02-20T23:14:05.590Z,97.30
2018-02-20T23:16:33.124Z,97.30
2018-02-20T23:19:00.733Z,97.30
2018-02-20T23:21:28.217Z,97.60
2018-02-20T23:23:55.841Z,97.10
2018-02-20T23:26:23.383Z,97.60
2018-02-20T23:28:50.926Z,98.30
2018-02-20T23:31:19.548Z,98.10
2018-02-20T23:33:47.114Z,98.10
2018-02-20T23:36:14.648Z,97.70
2018-02-20T23:38:43.022Z,97.60
2018-02-20T23:41:11.325Z,98.20
2018-02-20T23:43:38.843Z,98.20
2018-02-20T23:46:06.626Z,97.80
2018-02-20T23:48:34.972Z,97.70
2018-02-20T23:51:08.296Z,97.70
2018-02-20T23:53:35.812Z,99.00
2018-02-20T23:56:03.344Z,99.30
2018-02-20T23:58:31.687Z,98.60
